M I D A S
Marine Information and Data Acquisition System
Tripno 148 of the Zeeleeuw from 2001-08-13 06:59:03 to 2001-08-13 17:40:00
Back to CruiseResearch ActivitiesStationsMapUnderway DataData graphs

EquipmentUnitsComment
TimeDGPSUTC
LatitudeDGPSDM.mWGS84
LongitudeDGPSDM.mWGS84
HeadingGyrodeg 
SOGDGPSknotsSpeed over ground
COGDGPSdegCourse over ground
DepthEcho soundermeters200 kHz
Missing or incorrect values are displayed as -999
Navigation data collected by the RV Zeeleeuw from 2001-08-13 06:59:03 to 2001-08-13 17:40:00
                                                                                    Next 1000 lines
Time Latitude Longitude Heading SOG COG Depth
2001-08-13 06:59:13 51°13.677 2°55.924 359.8   53.2 -999
2001-08-13 06:59:19 51°13.677 2°55.924 359.7   40 -999
2001-08-13 06:59:23 51°13.677 2°55.924 359.5   29.6 -999
2001-08-13 06:59:30 51°13.677 2°55.924 359.5   249.3 -999
2001-08-13 06:59:34 51°13.677 2°55.924 359.5   246.9 -999
2001-08-13 06:59:40 51°13.677 2°55.924 359.7   327.8 -999
2001-08-13 06:59:44 51°13.677 2°55.924 359.7   357.5 -999
2001-08-13 06:59:50 51°13.677 2°55.924 359.5   14 -999
2001-08-13 06:59:55 51°13.677 2°55.924 359.5   13 -999
2001-08-13 07:00:00 51°13.677 2°55.924 359.5   220.9 -999
2001-08-13 07:00:04 51°13.677 2°55.924 359.5   161 -999
2001-08-13 07:00:10 51°13.677 2°55.924 359.3   91.9 -999
2001-08-13 07:00:14 51°13.677 2°55.924 359.2   50.4 -999
2001-08-13 07:00:20 51°13.677 2°55.924 359   13.8 -999
2001-08-13 07:00:24 51°13.677 2°55.924 359.2   240.7 -999
2001-08-13 07:00:30 51°13.677 2°55.924 359.2   219.1 -999
2001-08-13 07:00:35 51°13.676 2°55.924 359.2   86.1 -999
2001-08-13 07:00:40 51°13.676 2°55.924 359.2   68.7 -999
2001-08-13 07:00:44 51°13.676 2°55.924 359   55.7 -999
2001-08-13 07:00:50 51°13.676 2°55.924 0.2   198.1 -999
2001-08-13 07:00:55 51°13.676 2°55.924     344.2 -999
2001-08-13 07:01:00 51°13.676 2°55.924     69.4 -999
2001-08-13 07:01:05 51°13.676 2°55.924     144 -999
2001-08-13 07:01:10 51°13.676 2°55.924     153.8 -999
2001-08-13 07:01:15 51°13.676 2°55.924     133.8 -999
2001-08-13 07:01:20 51°13.676 2°55.924     212.7 -999
2001-08-13 07:01:44 51°13.676 2°55.924 0.2   196.8 -999
2001-08-13 07:01:50 51°13.677 2°55.924 0.2   311.2 -999
2001-08-13 07:01:54 51°13.677 2°55.924 0.3   174.2 -999
2001-08-13 07:02:00 51°13.677 2°55.924 0.3   175 -999
2001-08-13 07:02:04 51°13.677 2°55.923 0.5   193.8 -999
2001-08-13 07:02:10 51°13.677 2°55.923 0.5   8.3 -999
2001-08-13 07:02:15 51°13.677 2°55.924 0.7   9.1 -999
2001-08-13 07:02:20 51°13.677 2°55.924 0.5   30.1 -999
2001-08-13 07:02:24 51°13.677 2°55.924 0.5   63.4 -999
2001-08-13 07:02:30 51°13.677 2°55.924 0.5   352.5 -999
2001-08-13 07:02:34 51°13.677 2°55.924 0.7   209.8 -999
2001-08-13 07:02:40 51°13.677 2°55.923 0.8   203.9 -999
2001-08-13 07:02:44 51°13.677 2°55.923 0.8   209.2 -999
2001-08-13 07:02:50 51°13.677 2°55.923 0.8   161.3 -999
2001-08-13 07:02:55 51°13.677 2°55.923 1   165.8 -999
2001-08-13 07:03:00 51°13.677 2°55.923 1   76.1 -999
2001-08-13 07:03:04 51°13.677 2°55.923 0.7   56.2 -999
2001-08-13 07:03:10 51°13.677 2°55.923 0.3   36.8 -999
2001-08-13 07:03:15 51°13.677 2°55.923 0.2   353.6 -999
2001-08-13 07:03:20 51°13.677 2°55.923 0.3   240 -999
2001-08-13 07:03:25 51°13.677 2°55.923 0.5   234.7 -999
2001-08-13 07:03:30 51°13.677 2°55.923 0.5   206.9 -999
2001-08-13 07:03:34 51°13.677 2°55.923 0.3   63.8 -999
2001-08-13 07:03:40 51°13.677 2°55.923 0.2   356.9 -999
2001-08-13 07:03:44 51°13.677 2°55.923 0.2   328.1 -999
2001-08-13 07:03:50 51°13.677 2°55.923 0.2   159 -999
2001-08-13 07:03:55 51°13.677 2°55.923 0.2   138.2 -999
2001-08-13 07:04:00 51°13.677 2°55.923     148.1 -999
2001-08-13 07:04:04 51°13.677 2°55.923     205.9 -999
2001-08-13 07:04:10 51°13.677 2°55.923 0.2   239.9 -999
2001-08-13 07:04:15 51°13.677 2°55.923 0.2   215.6 -999
2001-08-13 07:04:20 51°13.677 2°55.923 0.3   184.5 -999
2001-08-13 07:04:25 51°13.677 2°55.923 0.2   342.2 -999
2001-08-13 07:04:30 51°13.677 2°55.923 0.3   331.5 -999
2001-08-13 07:04:35 51°13.677 2°55.923 0.3   338.7 -999
2001-08-13 07:04:40 51°13.677 2°55.923 0.5   15.9 -999
2001-08-13 07:04:44 51°13.677 2°55.923 0.3   65.7 -999
2001-08-13 07:04:50 51°13.677 2°55.923 0.3   56 -999
2001-08-13 07:04:54 51°13.677 2°55.923 0.3   8.7 -999
2001-08-13 07:05:00 51°13.677 2°55.923 0.3   321.3 -999
2001-08-13 07:05:04 51°13.677 2°55.923 0.5   289.8 -999
2001-08-13 07:05:10 51°13.677 2°55.923 0.5   286.2 -999
2001-08-13 07:05:15 51°13.677 2°55.923 0.5   242.1 -999
2001-08-13 07:05:20 51°13.677 2°55.923 1.2   93.5 -999
2001-08-13 07:05:24 51°13.677 2°55.922 34   118.6 -999
2001-08-13 07:05:30 51°13.677 2°55.922 78   172.5 -999
2001-08-13 07:05:35 51°13.676 2°55.923 119   222.7 -999
2001-08-13 07:05:40 51°13.676 2°55.923 134   222.8 -999
2001-08-13 07:05:44 51°13.676 2°55.923 130.7   209.6 -999
2001-08-13 07:05:50 51°13.676 2°55.923 131.2   177.3 -999
2001-08-13 07:05:54 51°13.676 2°55.923 131   40.9 -999
2001-08-13 07:06:00 51°13.676 2°55.923 130.8   56.8 -999
2001-08-13 07:06:04 51°13.676 2°55.923 130.7   56.1 -999
2001-08-13 07:06:10 51°13.676 2°55.923 130.5   21.8 -999
2001-08-13 07:06:15 51°13.676 2°55.923 130.5   325.8 -999
2001-08-13 07:06:20 51°13.676 2°55.923 130.5   267.2 -999
2001-08-13 07:06:24 51°13.676 2°55.923 130.3   303.2 -999
2001-08-13 07:06:30 51°13.676 2°55.923 130.2   40.4 -999
2001-08-13 07:06:34 51°13.676 2°55.923 130   46.3 -999
2001-08-13 07:06:40 51°13.676 2°55.923 130.2   337 -999
2001-08-13 07:06:44 51°13.676 2°55.923 130.2   294.4 -999
2001-08-13 07:06:50 51°13.676 2°55.923 130.3   273.4 -999
2001-08-13 07:06:54 51°13.676 2°55.923 130.3   305.7 -999
2001-08-13 07:07:00 51°13.676 2°55.923 130.3   306.6 -999
2001-08-13 07:07:04 51°13.676 2°55.923 130.3   67.2 -999
2001-08-13 07:07:10 51°13.677 2°55.923 130.2   103 -999
2001-08-13 07:07:15 51°13.677 2°55.923 130.2   141.7 -999
2001-08-13 07:07:20 51°13.676 2°55.923 130.3   164.9 -999
2001-08-13 07:07:24 51°13.676 2°55.923 130.5   168.9 -999
2001-08-13 07:07:30 51°13.676 2°55.923 130.5   182.2 -999
2001-08-13 07:07:35 51°13.676 2°55.923 130.7   188.9 -999
2001-08-13 07:07:40 51°13.676 2°55.923 130.7   250.8 -999
2001-08-13 07:07:44 51°13.676 2°55.923 130.8   245.2 -999
2001-08-13 07:07:50 51°13.676 2°55.923 130.8   196.5 -999
2001-08-13 07:07:55 51°13.676 2°55.923 130.7   99.3 -999
2001-08-13 07:08:00 51°13.676 2°55.923 130.5   71.2 -999
2001-08-13 07:08:04 51°13.676 2°55.923 130.3   61.1 -999
2001-08-13 07:08:10 51°13.676 2°55.923 130.2   27.8 -999
2001-08-13 07:08:15 51°13.676 2°55.923 130.2   190.5 -999
2001-08-13 07:08:20 51°13.676 2°55.923 130.2   302.4 -999
2001-08-13 07:08:24 51°13.676 2°55.923 130.3   348.1 -999
2001-08-13 07:08:30 51°13.676 2°55.923 130.7   168.8 -999
2001-08-13 07:08:35 51°13.676 2°55.923 130.8   187.6 -999
2001-08-13 07:08:40 51°13.676 2°55.923 131   179.6 -999
2001-08-13 07:08:45 51°13.676 2°55.923 131.2   202.2 -999
2001-08-13 07:08:50 51°13.676 2°55.923 131.3   218.5 -999
2001-08-13 07:08:54 51°13.676 2°55.923 131.2   186.3 -999
2001-08-13 07:09:00 51°13.676 2°55.923 130.8   38.1 -999
2001-08-13 07:09:04 51°13.676 2°55.923 130.7   28.6 -999
2001-08-13 07:09:10 51°13.676 2°55.923 130.7   17.6 -999
2001-08-13 07:09:14 51°13.676 2°55.923 130.5   17.4 -999
2001-08-13 07:09:20 51°13.676 2°55.923 130.5   22 -999
2001-08-13 07:09:24 51°13.676 2°55.923 130.5   354.3 -999
2001-08-13 07:09:30 51°13.676 2°55.923 130.5   305.8 -999
2001-08-13 07:09:34 51°13.676 2°55.923 130.5   300.5 -999
2001-08-13 07:09:40 51°13.676 2°55.923 130.7   238.8 -999
2001-08-13 07:09:44 51°13.676 2°55.923 130.8   210.4 -999
2001-08-13 07:09:50 51°13.676 2°55.923 130.8   201.9 -999
2001-08-13 07:09:55 51°13.676 2°55.923 131   211.8 -999
2001-08-13 07:10:00 51°13.676 2°55.923 130.8   338.6 -999
2001-08-13 07:10:04 51°13.676 2°55.923 130.7   238.8 -999
2001-08-13 07:10:08 51°13.676 2°55.923 130.5   76.8 -999
2001-08-13 07:10:13 51°13.676 2°55.923 130.3   52.6 -999
2001-08-13 07:10:17 51°13.676 2°55.923 130.3   52.5 -999
2001-08-13 07:10:22 51°13.676 2°55.923 130.2   41.6 -999
2001-08-13 07:10:26 51°13.676 2°55.923 130   337 -999
2001-08-13 07:10:30 51°13.677 2°55.923 130   335.2 -999
2001-08-13 07:10:36 51°13.677 2°55.923 130   308.1 5.1
2001-08-13 07:10:40 51°13.677 2°55.923 130   345.3 -999
2001-08-13 07:10:46 51°13.676 2°55.923 130.2   78.5 5
2001-08-13 07:10:50 51°13.676 2°55.923 130.2   115.8 8.3
2001-08-13 07:10:56 51°13.676 2°55.923 130   103.3 5
2001-08-13 07:11:00 51°13.676 2°55.923 130.2   283.6 5.1
2001-08-13 07:11:04 51°13.676 2°55.923 130.3   249.4 5.1
2001-08-13 07:11:10 51°13.676 2°55.923 130.5   220.5 5
2001-08-13 07:11:16 51°13.676 2°55.923 130.8   197.7 5.1
2001-08-13 07:11:20 51°13.676 2°55.923 131   179.5 5.4
2001-08-13 07:11:25 51°13.677 2°55.923 131.2   213.2 -999
2001-08-13 07:11:30 51°13.677 2°55.923 131.5   326.6 8.3
2001-08-13 07:11:36 51°13.677 2°55.923 131.7   226.4 5.1
2001-08-13 07:11:40 51°13.677 2°55.923 131.7   83.3 -999
2001-08-13 07:11:46 51°13.676 2°55.923 131.7   23.9 5.1
2001-08-13 07:11:50 51°13.676 2°55.923 131.5   9 -999
2001-08-13 07:11:56 51°13.677 2°55.923 131.5   2.5 -999
2001-08-13 07:12:00 51°13.677 2°55.923 131.3   8.2 5.3
2001-08-13 07:12:06 51°13.677 2°55.923 131.3   20.3 5.2
2001-08-13 07:12:10 51°13.677 2°55.923 131.2   357.6 5.2
2001-08-13 07:12:14 51°13.677 2°55.923 131   13 5
2001-08-13 07:12:32 51°13.677 2°55.923 131   322.2 -999
2001-08-13 07:12:36 51°13.677 2°55.923 131   347.6 -999
2001-08-13 07:12:42 51°13.677 2°55.923 130.8   48.7 5.4
2001-08-13 07:12:47 51°13.677 2°55.923 130.7   65.3 -999
2001-08-13 07:14:02 51°13.677 2°55.923 129.3   345.2 -999
2001-08-13 07:14:08 51°13.677 2°55.923 128.8   336 5
2001-08-13 07:14:12 51°13.677 2°55.923 128.5   308.8 5.2
2001-08-13 07:14:16 51°13.677 2°55.923 128.3   170.4 5.1
2001-08-13 07:14:22 51°13.677 2°55.923 128.5   308 5.2
2001-08-13 07:14:26 51°13.677 2°55.923 128.8   4.2 -999
2001-08-13 07:14:32 51°13.677 2°55.923 129   67 5.1
2001-08-13 07:14:36 51°13.677 2°55.923 128.8   112.6 5.2
2001-08-13 07:14:42 51°13.677 2°55.923 128.8   147.3 -999
2001-08-13 07:14:48 51°13.677 2°55.923 129   227.6 8.4
2001-08-13 07:14:52 51°13.677 2°55.923 129.3   228.2 -999
2001-08-13 07:14:58 51°13.677 2°55.923 129.7   277.5 -999
2001-08-13 07:15:02 51°13.677 2°55.923 129.8   289.4 -999
2001-08-13 07:15:08 51°13.677 2°55.923 129.8   38.1 -999
2001-08-13 07:15:12 51°13.677 2°55.923 129.5   49.2 -999
2001-08-13 07:15:18 51°13.677 2°55.923 129.2   33.2 -999
2001-08-13 07:15:23 51°13.677 2°55.923 129   346.7 -999
2001-08-13 07:15:28 51°13.677 2°55.923 129.2   279.9 -999
2001-08-13 07:15:32 51°13.677 2°55.923 129.3   321.4 -999
2001-08-13 07:15:38 51°13.677 2°55.923 129.3   157.8 -999
2001-08-13 07:15:43 51°13.677 2°55.923 129.3   195.4 -999
2001-08-13 07:15:48 51°13.677 2°55.923 129.2   73 -999
2001-08-13 07:15:52 51°13.677 2°55.923 129.3   68.2 -999
2001-08-13 07:15:58 51°13.677 2°55.923 129.5   187.2 -999
2001-08-13 07:16:02 51°13.677 2°55.923 129.8   214.3 -999
2001-08-13 07:16:08 51°13.677 2°55.923 130.2   217.2 -999
2001-08-13 07:16:12 51°13.677 2°55.923 130.3   223.1 -999
2001-08-13 07:16:18 51°13.677 2°55.923 130.5   197.8 -999
2001-08-13 07:16:23 51°13.677 2°55.923 130.5   135 -999
2001-08-13 07:16:28 51°13.677 2°55.923 130.2   76.3 -999
2001-08-13 07:16:33 51°13.677 2°55.923 130.2   3.3 -999
2001-08-13 07:16:38 51°13.677 2°55.923 130.3   319 -999
2001-08-13 07:16:42 51°13.677 2°55.923 130.5   332.1 -999
2001-08-13 07:16:48 51°13.676 2°55.923 130.5   187 -999
2001-08-13 07:16:52 51°13.676 2°55.923 130.3   105.6 -999
2001-08-13 07:16:58 51°13.676 2°55.922 130.3   302 -999
2001-08-13 07:17:03 51°13.676 2°55.922 130.3   299.1 -999
2001-08-13 07:17:08 51°13.676 2°55.922 130.3   343 -999
2001-08-13 07:17:12 51°13.676 2°55.922 130.5   5.1 -999
2001-08-13 07:17:18 51°13.676 2°55.922 130.2   113.6 -999
2001-08-13 07:17:22 51°13.676 2°55.922 130.2   127.3 -999
2001-08-13 07:17:28 51°13.676 2°55.922 130.2   55.3 -999
2001-08-13 07:17:32 51°13.676 2°55.922 130.5   286.9 -999
2001-08-13 07:17:38 51°13.676 2°55.922 130.7   238 -999
2001-08-13 07:17:43 51°13.676 2°55.922 130.8   236.6 -999
2001-08-13 07:17:48 51°13.676 2°55.922 131   213.7 -999
2001-08-13 07:17:52 51°13.676 2°55.922 131.2   229.1 -999
2001-08-13 07:17:58 51°13.676 2°55.922 131   332 -999
2001-08-13 07:18:02 51°13.676 2°55.922 131   344.1 -999
2001-08-13 07:18:08 51°13.676 2°55.922 130.8   72.1 -999
2001-08-13 07:18:12 51°13.676 2°55.922 130.7   113.2 -999
2001-08-13 07:18:18 51°13.676 2°55.922 130.5   106.7 -999
2001-08-13 07:18:22 51°13.677 2°55.922 130.3   69.8 -999
2001-08-13 07:18:28 51°13.677 2°55.922 130.3   299.8 -999
2001-08-13 07:18:32 51°13.677 2°55.922 130.2   271.1 -999
2001-08-13 07:18:38 51°13.677 2°55.922 130.3   313.1 -999
2001-08-13 07:18:42 51°13.677 2°55.922 130.3   338.4 -999
2001-08-13 07:18:48 51°13.677 2°55.922 130.2   32 -999
2001-08-13 07:18:52 51°13.677 2°55.922 130.2   24.1 -999
2001-08-13 07:18:58 51°13.677 2°55.923 130   85.4 -999
2001-08-13 07:19:02 51°13.677 2°55.923 129.8   102.8 -999
2001-08-13 07:19:08 51°13.677 2°55.922 130   222.7 -999
2001-08-13 07:19:12 51°13.677 2°55.922 130.3   238.8 -999
2001-08-13 07:19:18 51°13.676 2°55.922 130.5   240.1 -999
2001-08-13 07:19:23 51°13.676 2°55.922 130.8   198.9 -999
2001-08-13 07:19:28 51°13.676 2°55.922 131   153.6 -999
2001-08-13 07:19:32 51°13.676 2°55.922 131   164.9 -999
2001-08-13 07:19:38 51°13.676 2°55.923 131   66.7 -999
2001-08-13 07:19:43 51°13.677 2°55.923 130.8   44.4 -999
2001-08-13 07:19:48 51°13.677 2°55.923 130.7   31.4 -999
2001-08-13 07:19:52 51°13.677 2°55.923 130.5   44 -999
2001-08-13 07:19:58 51°13.677 2°55.923 130.3   337.4 -999
2001-08-13 07:20:02 51°13.677 2°55.923 130.2   338.3 -999
2001-08-13 07:20:08 51°13.677 2°55.923 130.2   270.9 -999
2001-08-13 07:20:12 51°13.677 2°55.923 130   270.6 -999
2001-08-13 07:20:18 51°13.677 2°55.923 130   303.5 -999
2001-08-13 07:20:23 51°13.677 2°55.923 130   13.2 -999
2001-08-13 07:20:28 51°13.677 2°55.923 130.2   350.3 -999
2001-08-13 07:20:33 51°13.677 2°55.923 130.2   337.1 -999
2001-08-13 07:20:38 51°13.677 2°55.923 130.2   288.2 -999
2001-08-13 07:20:42 51°13.677 2°55.923 130.2   27.7 -999
2001-08-13 07:20:48 51°13.677 2°55.923 130.2   35.3 -999
2001-08-13 07:20:52 51°13.677 2°55.923 130.2   38.7 -999
2001-08-13 07:20:58 51°13.677 2°55.923 130   113.6 -999
2001-08-13 07:21:03 51°13.677 2°55.923 129.8   91.9 -999
2001-08-13 07:21:08 51°13.677 2°55.923 129.8   167.6 -999
2001-08-13 07:21:13 51°13.676 2°55.923 129.8   197 -999
2001-08-13 07:21:18 51°13.677 2°55.923 130   221.5 -999
2001-08-13 07:21:22 51°13.677 2°55.923 130   306.5 -999
2001-08-13 07:21:28 51°13.676 2°55.923 130.2   270.8 -999
2001-08-13 07:21:32 51°13.676 2°55.923 130.2   172.9 -999
2001-08-13 07:21:38 51°13.677 2°55.923 130   65.7 -999
2001-08-13 07:21:43 51°13.677 2°55.923 130   67.6 -999
2001-08-13 07:21:48 51°13.677 2°55.923 130   55.3 -999
2001-08-13 07:21:52 51°13.677 2°55.923 129.8   57.6 -999
2001-08-13 07:21:58 51°13.676 2°55.923 129.8   193.6 -999
2001-08-13 07:22:03 51°13.676 2°55.923 130   253.6 -999
2001-08-13 07:22:08 51°13.676 2°55.923 130.2   271.2 -999
2001-08-13 07:22:12 51°13.676 2°55.923 130.3   224.3 -999
2001-08-13 07:22:18 51°13.676 2°55.923 130.5   162.6 -999
2001-08-13 07:22:22 51°13.676 2°55.923 130.5   170.2 -999
2001-08-13 07:22:28 51°13.676 2°55.923 130.5   312.7 -999
2001-08-13 07:22:32 51°13.676 2°55.923 130.3   342.8 -999
2001-08-13 07:22:38 51°13.676 2°55.923 130.3   100.1 5
2001-08-13 07:22:42 51°13.676 2°55.923 130.3   129.1 4.9
2001-08-13 07:22:48 51°13.676 2°55.923 130.2   94.7 -999
2001-08-13 07:22:52 51°13.676 2°55.923 130.2   43.6 -999
2001-08-13 07:22:58 51°13.676 2°55.923 130.2   83.7 5.2
2001-08-13 07:23:02 51°13.676 2°55.923 130.2   184.3 5
2001-08-13 07:23:08 51°13.676 2°55.923 130   199.2 5
2001-08-13 07:23:12 51°13.676 2°55.923 130   233.6 -999
2001-08-13 07:23:18 51°13.676 2°55.923 130.2   246 5
2001-08-13 07:23:22 51°13.676 2°55.923 130.3   249.7 5.2
2001-08-13 07:23:26 51°13.676 2°55.923 130.3   188.3 5
2001-08-13 07:23:32 51°13.676 2°55.923 130.5   176.1 5.1
2001-08-13 07:23:38 51°13.676 2°55.923 130.3   111.1 -999
2001-08-13 07:23:42 51°13.676 2°55.923 130.3   92.6 5.1
2001-08-13 07:23:46 51°13.676 2°55.923 130.2   92.1 4.9
2001-08-13 07:23:52 51°13.677 2°55.923 130.2   81.9 -999
2001-08-13 07:23:58 51°13.677 2°55.923 130.2   354 -999
2001-08-13 07:24:02 51°13.677 2°55.923 130.3   328.8 5.1
2001-08-13 07:24:06 51°13.677 2°55.923 130.3   320.1 -999
2001-08-13 07:24:12 51°13.677 2°55.923 130.3   29.3 4.9
2001-08-13 07:24:18 51°13.677 2°55.923 130.2   71.8 5.4
2001-08-13 07:24:22 51°13.677 2°55.923 130.2   202.1 5.2
2001-08-13 07:24:26 51°13.677 2°55.923 130.3   216.9 5
2001-08-13 07:24:32 51°13.677 2°55.923 130.7   240.4 5.1
2001-08-13 07:24:37 51°13.677 2°55.923 130.8   231.6 5.1
2001-08-13 07:24:42 51°13.677 2°55.923 131   65.6 5.3
2001-08-13 07:24:47 51°13.676 2°55.923 131   85.4 4.9
2001-08-13 07:24:52 51°13.676 2°55.923 131   118 -999
2001-08-13 07:24:58 51°13.677 2°55.923 130.8   87.3 -999
2001-08-13 07:25:02 51°13.677 2°55.923 130.7   94.2 5.4
2001-08-13 07:25:08 51°13.677 2°55.923 130.7   130.7 5.2
2001-08-13 07:25:12 51°13.677 2°55.923 130.7   17.9 5.2
2001-08-13 07:25:16 51°13.677 2°55.923 130.5   19.1 5.3
2001-08-13 07:25:22 51°13.677 2°55.923 130.3   282.4 5.2
2001-08-13 07:25:26 51°13.677 2°55.923 130.7   222.4 5.2
2001-08-13 07:25:32 51°13.677 2°55.923 130.8   164.7 5.1
2001-08-13 07:25:38 51°13.677 2°55.923 130.8   129.6 4.9
2001-08-13 07:25:42 51°13.677 2°55.923 130.7   74.8 5
2001-08-13 07:25:48 51°13.677 2°55.923 130.5   86.6 5.1
2001-08-13 07:25:52 51°13.677 2°55.923 130.2   89.5 5.1
2001-08-13 07:25:57 51°13.677 2°55.923 130   100.2 5.1
2001-08-13 07:26:02 51°13.677 2°55.923 130.2   177.9 5
2001-08-13 07:26:08 51°13.677 2°55.923 130.3   344.9 5.2
2001-08-13 07:26:12 51°13.677 2°55.923 130.3   38.3 5.1
2001-08-13 07:26:16 51°13.677 2°55.923 130.2   33.2 -999
2001-08-13 07:26:22 51°13.677 2°55.923 130.2   263.7 -999
2001-08-13 07:26:28 51°13.677 2°55.923 130.2   209.4 5.1
2001-08-13 07:26:32 51°13.677 2°55.923 130.3   194.9 5.1
2001-08-13 07:26:36 51°13.677 2°55.923 130.5   229.7 5.1
2001-08-13 07:26:42 51°13.677 2°55.923 130.7   257.3 5.2
2001-08-13 07:26:48 51°13.677 2°55.922 131   225.3 -999
2001-08-13 07:26:52 51°13.677 2°55.922 131.3   218 5.3
2001-08-13 07:26:57 51°13.677 2°55.922 131.5   225.2 5.3
2001-08-13 07:27:02 51°13.677 2°55.922 131.8   216.5 5.1
2001-08-13 07:27:06 51°13.677 2°55.922 132   205.8 5.3
2001-08-13 07:27:12 51°13.677 2°55.922 132   152 5.2
2001-08-13 07:27:16 51°13.677 2°55.922 131.8   108.7 5.2
2001-08-13 07:27:22 51°13.677 2°55.923 131.8   80.5 5
2001-08-13 07:27:28 51°13.677 2°55.923 131.3   60.9 5.1
2001-08-13 07:27:32 51°13.677 2°55.923 131   43.6 5
2001-08-13 07:27:38 51°13.677 2°55.923 131   207.1 5.3
2001-08-13 07:27:42 51°13.677 2°55.923 131.3   186.6 5.1
2001-08-13 07:27:46 51°13.677 2°55.923 131.5   160.8 5.2
2001-08-13 07:27:52 51°13.677 2°55.923 131.3   89 5.2
2001-08-13 07:27:58 51°13.677 2°55.923 131   91 5.2
2001-08-13 07:28:02 51°13.677 2°55.923 130.7 0.1 63.7 5.1
2001-08-13 07:28:06 51°13.677 2°55.923 130.3   72.1 5.1
2001-08-13 07:28:12 51°13.677 2°55.923 130.2   142.5 5.1
2001-08-13 07:28:16 51°13.677 2°55.923 130.5   248.1 5.1
2001-08-13 07:28:22 51°13.677 2°55.923 130.7   237.9 5.1
2001-08-13 07:28:28 51°13.677 2°55.923 131   239.3 -999
2001-08-13 07:28:32 51°13.677 2°55.923 131.3   255.7 5.1
2001-08-13 07:28:38 51°13.677 2°55.923 131.5   249.1 -999
2001-08-13 07:28:42 51°13.677 2°55.923 131.7   250.6 5.2
2001-08-13 07:28:46 51°13.677 2°55.923 131.8   203.8 5.5
2001-08-13 07:28:52 51°13.677 2°55.923 132   163.3 5.1
2001-08-13 07:28:56 51°13.677 2°55.923 132   179.6 4.9
2001-08-13 07:29:02 51°13.677 2°55.923 132   215 5
2001-08-13 07:29:08 51°13.677 2°55.922 132   187.1 5.1
2001-08-13 07:29:12 51°13.677 2°55.923 132   127.1 -999
2001-08-13 07:29:18 51°13.677 2°55.923 131.8   124.5 5.2
2001-08-13 07:29:22 51°13.677 2°55.923 131.8   132.8 5.4
2001-08-13 07:29:26 51°13.677 2°55.923 131.8   312.1 -999
2001-08-13 07:29:32 51°13.677 2°55.923 131.8   127.1 5.3
2001-08-13 07:29:36 51°13.677 2°55.923 132   137.9 5.1
2001-08-13 07:29:42 51°13.677 2°55.923 131.8   107.2 5.1
2001-08-13 07:29:47 51°13.677 2°55.922 131.7   80.6 5.3
2001-08-13 07:29:52 51°13.677 2°55.922 131.5   86.4 5.4
2001-08-13 07:29:56 51°13.677 2°55.923 131.3   79.9 5.1
2001-08-13 07:30:02 51°13.677 2°55.923 131   84.4 5
2001-08-13 07:30:06 51°13.677 2°55.923 130.7 0.1 81.5 5.3
2001-08-13 07:30:12 51°13.677 2°55.923 130.2 0.1 89.3 5.1
2001-08-13 07:30:17 51°13.677 2°55.923 129.5 0.1 90 -999
2001-08-13 07:30:22 51°13.677 2°55.923 128.7   109.1 4.9
2001-08-13 07:30:28 51°13.677 2°55.923 128.3   130.3 5.1
2001-08-13 07:30:32 51°13.677 2°55.923 128.2   316.5 5
2001-08-13 07:30:36 51°13.677 2°55.923 128.5   237.1 5.1
2001-08-13 07:30:42 51°13.677 2°55.923 129.2 0.1 242.3 5.3
2001-08-13 07:30:46 51°13.677 2°55.923 130 0.1 255.4 5.2
2001-08-13 07:30:52 51°13.677 2°55.923 130.8 0.1 258.8 5.3
2001-08-13 07:30:56 51°13.677 2°55.923 131   228.6 5.4
2001-08-13 07:31:02 51°13.677 2°55.923 131.2   108.1 5.2
2001-08-13 07:31:06 51°13.677 2°55.923 130.8   77.6 -999
2001-08-13 07:31:12 51°13.677 2°55.923 130.5   89.7 4.9
2001-08-13 07:31:16 51°13.677 2°55.923 130.2   106 5.2
2001-08-13 07:31:22 51°13.677 2°55.923 130   185.4 5.2
2001-08-13 07:31:26 51°13.677 2°55.923 130.3   181.2 5.5
2001-08-13 07:31:32 51°13.677 2°55.924 130.3   116.1 -999
2001-08-13 07:31:38 51°13.677 2°55.924 130.2   89.6 -999
2001-08-13 07:31:42 51°13.677 2°55.924 130   302.9 -999
2001-08-13 07:31:46 51°13.677 2°55.924 130.3   278.7 5.3
2001-08-13 07:31:52 51°13.677 2°55.923 130.7   236.3 5
2001-08-13 07:31:58 51°13.676 2°55.923 131   240.7 5.1
2001-08-13 07:32:02 51°13.676 2°55.923 131.2   246.1 5.3
2001-08-13 07:32:08 51°13.676 2°55.923 131.2   151.8 5.5
2001-08-13 07:32:12 51°13.676 2°55.923 131   85.5 -999
2001-08-13 07:32:16 51°13.676 2°55.923 130.8   78.3 5.3
2001-08-13 07:32:22 51°13.676 2°55.923 130.7   101.1 5.3
2001-08-13 07:32:27 51°13.676 2°55.923 130.5   140.2 5.3
2001-08-13 07:32:32 51°13.676 2°55.923 130.3   121.5 5.1
2001-08-13 07:32:37 51°13.676 2°55.923 130.2   98.9 5.2
2001-08-13 07:32:42 51°13.676 2°55.923 130   63.5 5.1
2001-08-13 07:32:48 51°13.676 2°55.923 129.8   52.6 5.2
2001-08-13 07:32:52 51°13.676 2°55.924 129.3 0.1 65.3 5.3
2001-08-13 07:32:56 51°13.676 2°55.924 128.5   96.3 5.2
2001-08-13 07:33:02 51°13.677 2°55.924 128.2   166.9 -999
2001-08-13 07:33:08 51°13.676 2°55.924 127.8   199.7 5.2
2001-08-13 07:33:12 51°13.677 2°55.924 127.8   308.8 -999
2001-08-13 07:33:16 51°13.677 2°55.924 127.8   343.3 5.3
2001-08-13 07:33:22 51°13.677 2°55.924 128.2   13.8 5.1
2001-08-13 07:33:27 51°13.677 2°55.924 128.5   242.6 5.4
2001-08-13 07:33:32 51°13.677 2°55.924 129   264.2 5.4
2001-08-13 07:33:36 51°13.677 2°55.924 129.5   261.1 5.1
2001-08-13 07:33:42 51°13.677 2°55.924 130   260.5 5.2
2001-08-13 07:33:46 51°13.677 2°55.925 130.2   275.2 5.2
2001-08-13 07:33:52 51°13.677 2°55.926 130   87.8 5
2001-08-13 07:33:58 51°13.677 2°55.926 129.7 0.1 76.6 5.1
2001-08-13 07:34:02 51°13.677 2°55.926 129.2   73.4 5.3
2001-08-13 07:34:06 51°13.677 2°55.926 128.7   47.4 5
2001-08-13 07:34:12 51°13.677 2°55.925 128.5   294.6 5.3
2001-08-13 07:34:17 51°13.677 2°55.925 128.8   279.5 5.1
2001-08-13 07:34:22 51°13.677 2°55.925 129.2   303.5 5
2001-08-13 07:34:27 51°13.677 2°55.925 129.2   50.6 5.3
2001-08-13 07:34:32 51°13.677 2°55.925 128.8   110.8 -999
2001-08-13 07:34:38 51°13.677 2°55.925 128.5   152.1 5.1
2001-08-13 07:34:42 51°13.677 2°55.925 128.5   167.9 5.1
2001-08-13 07:34:46 51°13.677 2°55.925 128.5   238.9 5.3
2001-08-13 07:34:52 51°13.677 2°55.924 128.8   244.2 5
2001-08-13 07:34:56 51°13.677 2°55.924 129.5 0.1 252.1 5.1
2001-08-13 07:35:02 51°13.677 2°55.924 130 0.1 275.9 5.3
2001-08-13 07:35:06 51°13.677 2°55.924 130.5   290.1 5.1
2001-08-13 07:35:12 51°13.677 2°55.925 130.5   83.7 5.1
2001-08-13 07:35:16 51°13.677 2°55.925 130.2   98.9 5.1
2001-08-13 07:35:22 51°13.677 2°55.925 129.8   89.5 5
2001-08-13 07:35:28 51°13.677 2°55.924 129.7   93.4 -999
2001-08-13 07:35:32 51°13.677 2°55.924 129.5   192.5 5.7
2001-08-13 07:35:37 51°13.677 2°55.924 129.7   244 5.2
2001-08-13 07:35:42 51°13.677 2°55.924 130   255.6 5.3
2001-08-13 07:35:46 51°13.677 2°55.924 130.5   245 5.1
2001-08-13 07:35:52 51°13.677 2°55.924 131 0.1 249.2 5.2
2001-08-13 07:35:58 51°13.677 2°55.924 131.2   298.9 -999
2001-08-13 07:36:02 51°13.677 2°55.924 131   65.4 5.3
2001-08-13 07:36:06 51°13.677 2°55.924 130.7 0.1 65.8 5.2
2001-08-13 07:36:12 51°13.677 2°55.924 130.2   89.9 -999
2001-08-13 07:36:17 51°13.677 2°55.924 129.8   93.3 5
2001-08-13 07:36:22 51°13.677 2°55.925 129.5   81.8 5.3
2001-08-13 07:36:27 51°13.677 2°55.924 129.3   128.4 5.1
2001-08-13 07:36:32 51°13.677 2°55.925 129.2   230.4 5
2001-08-13 07:36:37 51°13.677 2°55.925 129.3   252 5.3
2001-08-13 07:36:42 51°13.677 2°55.924 129.8   260.8 5.4
2001-08-13 07:36:46 51°13.677 2°55.924 130.2   254.3 5.3
2001-08-13 07:36:52 51°13.677 2°55.924 130.8 0.1 253.2 5.1
2001-08-13 07:36:57 51°13.677 2°55.924 131.3 0.1 267.4 -999
2001-08-13 07:37:02 51°13.677 2°55.924 131.7 0.1 278 5.4
2001-08-13 07:37:06 51°13.677 2°55.924 132   280.7 4.9
2001-08-13 07:37:12 51°13.677 2°55.924 132.2   253 5.2
2001-08-13 07:37:16 51°13.677 2°55.924 132.2   188.8 5.3
2001-08-13 07:37:22 51°13.677 2°55.924 132   138.4 5.2
2001-08-13 07:37:26 51°13.677 2°55.924 132   112.6 5.3
2001-08-13 07:37:32 51°13.677 2°55.924 131.8   73.6 -999
2001-08-13 07:37:36 51°13.677 2°55.924 131.5 0.1 81 5.1
2001-08-13 07:37:42 51°13.677 2°55.924 130.7 0.1 77.6 5.3
2001-08-13 07:37:47 51°13.677 2°55.925 129.7 0.1 75.2 5.3
2001-08-13 07:37:52 51°13.677 2°55.925 128.5 0.1 115.4 5.4
2001-08-13 07:37:58 51°13.677 2°55.924 127.7   144.6 5
2001-08-13 07:38:02 51°13.677 2°55.924 127.2   163.9 5.1
2001-08-13 07:38:07 51°13.676 2°55.925 126.5 0.1 156.3 5.2
2001-08-13 07:38:12 51°13.677 2°55.925 126 0.1 142.2 5.1
2001-08-13 07:38:18 51°13.677 2°55.925 125.7   145.4 5
2001-08-13 07:38:22 51°13.677 2°55.925 125.3   159.9 5
2001-08-13 07:38:26 51°13.676 2°55.925 124.7   168.4 4.9
2001-08-13 07:38:32 51°13.676 2°55.925 123.8 0.1 167.5 -999
2001-08-13 07:38:37 51°13.676 2°55.925 123 0.1 167.8 5
2001-08-13 07:38:42 51°13.676 2°55.925 122.2 0.1 162.2 -999
2001-08-13 07:38:47 51°13.676 2°55.925 121.2 0.1 166.7 5.2
2001-08-13 07:38:52 51°13.676 2°55.925 120 0.1 170.4 5.1
2001-08-13 07:38:56 51°13.676 2°55.925 118.8 0.1 168.2 -999
2001-08-13 07:39:02 51°13.675 2°55.925 117.5 0.1 168.5 5
2001-08-13 07:39:08 51°13.675 2°55.925 116.3 0.1 169.1 -999
2001-08-13 07:39:12 51°13.675 2°55.925 115.2 0.1 170.2 -999
2001-08-13 07:39:18 51°13.675 2°55.925 113.8 0.1 169.7 5.1
2001-08-13 07:39:22 51°13.675 2°55.925 112.7 0.1 169.3 5
2001-08-13 07:39:27 51°13.675 2°55.925 111.5 0.1 164.7 5
2001-08-13 07:39:32 51°13.675 2°55.925 110.3 0.1 167.1 -999
2001-08-13 07:39:38 51°13.674 2°55.925 109.2 0.1 177.4 5.1
2001-08-13 07:39:42 51°13.674 2°55.925 108.2 0.1 171.2 5.1
2001-08-13 07:39:48 51°13.674 2°55.925 107 0.1 169.6 5
2001-08-13 07:39:52 51°13.674 2°55.925 106 0.1 176.2 5
2001-08-13 07:39:58 51°13.674 2°55.925 105.2 0.1 175.3 5.1
2001-08-13 07:40:02 51°13.674 2°55.925 104 0.1 175.6 -999
2001-08-13 07:40:08 51°13.674 2°55.925 102.8 0.1 165.9 -999
2001-08-13 07:40:12 51°13.674 2°55.925 102 0.1 163.8 5
2001-08-13 07:40:16 51°13.674 2°55.925 101.2 0.1 169.5 5.1
2001-08-13 07:40:22 51°13.674 2°55.925 100.5   217.7 5.3
2001-08-13 07:40:27 51°13.674 2°55.925 100.2   264.5 5.1
2001-08-13 07:40:32 51°13.674 2°55.925 99.8 0.1 278.6 4.8
2001-08-13 07:40:38 51°13.674 2°55.924 99.7 0.2 283.7 5.2
2001-08-13 07:40:42 51°13.674 2°55.923 99.3 0.3 283.2 5.1
2001-08-13 07:40:48 51°13.674 2°55.923 99 0.3 282.7 5.1
2001-08-13 07:40:52 51°13.674 2°55.922 99 0.2 286.6 5.1
2001-08-13 07:40:56 51°13.674 2°55.922 99 0.3 289.1 5.1
2001-08-13 07:41:02 51°13.674 2°55.921 98.8 0.4 287.3 -999
2001-08-13 07:41:07 51°13.674 2°55.92 98.7 0.5 284.4 5
2001-08-13 07:41:12 51°13.675 2°55.918 98.7 0.7 284 -999
2001-08-13 07:41:18 51°13.675 2°55.916 98.5 0.8 283.4 4.9
2001-08-13 07:41:22 51°13.675 2°55.914 98.7 0.8 284.2 4.9
2001-08-13 07:41:28 51°13.675 2°55.913 98.8 0.7 286.8 5
2001-08-13 07:41:32 51°13.676 2°55.911 99 0.7 288.5 5.3
2001-08-13 07:41:36 51°13.676 2°55.911 99 0.6 290.2 5.2
2001-08-13 07:41:42 51°13.677 2°55.909 99.2 0.6 292.2 4.9
2001-08-13 07:41:48 51°13.677 2°55.907 99.2 0.8 292.4 -999
2001-08-13 07:41:53 51°13.677 2°55.905 99.3 0.9 289.3 -999
2001-08-13 07:41:58 51°13.678 2°55.902 99.5 1.2 288.6 -999
2001-08-13 07:42:03 51°13.679 2°55.899 99.3 1.3 288.3 -999
2001-08-13 07:42:08 51°13.679 2°55.896 99 1.4 287.8 -999
2001-08-13 07:42:12 51°13.68 2°55.893 98.3 1.5 286.5 -999
2001-08-13 07:42:18 51°13.681 2°55.888 97.2 1.9 284.9 -999
2001-08-13 07:42:22 51°13.681 2°55.884 95.8 2.2 283.1 -999
2001-08-13 07:42:28 51°13.682 2°55.877 94.5 2.5 280.1 -999
2001-08-13 07:42:32 51°13.682 2°55.872 93 2.7 278.1 5
2001-08-13 07:42:36 51°13.683 2°55.866 91.7 2.9 276.4 5
2001-08-13 07:42:42 51°13.683 2°55.858 90.3 3.1 274 5
2001-08-13 07:42:46 51°13.683 2°55.852 89.2 3.3 272.5 5.1
2001-08-13 07:42:52 51°13.683 2°55.843 88 3.3 271.3 5.1
2001-08-13 07:42:56 51°13.683 2°55.838 86.8 3.2 270.2 5.2
2001-08-13 07:43:02 51°13.683 2°55.83 85.5 3 269.1 5
2001-08-13 07:43:08 51°13.683 2°55.823 84.2 2.9 267.8 9.9
2001-08-13 07:43:12 51°13.682 2°55.818 82.8 2.8 266.9 -999
2001-08-13 07:43:18 51°13.682 2°55.811 81.3 2.7 265.7 -999
2001-08-13 07:43:22 51°13.682 2°55.806 79.8 2.7 264.7 -999
2001-08-13 07:43:28 51°13.681 2°55.799 78.5 2.6 263.1 -999
2001-08-13 07:43:32 51°13.681 2°55.794 77 2.6 262 -999
2001-08-13 07:43:38 51°13.68 2°55.787 75.5 2.6 260 -999
2001-08-13 07:43:43 51°13.679 2°55.782 74 2.6 258.8 11.3
2001-08-13 07:43:48 51°13.679 2°55.776 72.5 2.5 257.5 -999
2001-08-13 07:43:53 51°13.678 2°55.771 70.8 2.5 256.3 -999
2001-08-13 07:43:58 51°13.677 2°55.766 69.5 2.4 255 -999
2001-08-13 07:44:02 51°13.676 2°55.762 68.2 2.3 253.7 -999
2001-08-13 07:44:08 51°13.675 2°55.757 66.8 2.2 251.9 -999
2001-08-13 07:44:13 51°13.674 2°55.752 65.5 2.2 250.9 9.2
2001-08-13 07:44:18 51°13.673 2°55.749 64.2 1.9 250.8 -999
2001-08-13 07:44:23 51°13.673 2°55.747 62.2 1.5 252.2 -999
2001-08-13 07:44:28 51°13.673 2°55.746 58.8 0.7 269.9 -999
2001-08-13 07:44:32 51°13.674 2°55.746 53.5 0.5 327 -999
2001-08-13 07:44:38 51°13.676 2°55.748 45.8 1.1 18.1 7
2001-08-13 07:44:43 51°13.679 2°55.749 37.5 1.6 22.4 -999
2001-08-13 07:44:48 51°13.682 2°55.751 29.2 2.2 19.7 -999
2001-08-13 07:44:52 51°13.685 2°55.752 21.3 2.6 15.5 -999
2001-08-13 07:44:58 51°13.691 2°55.753 13.5 3.1 8 12
2001-08-13 07:45:03 51°13.696 2°55.752 6 3.4 2.9 11.3
2001-08-13 07:45:08 51°13.702 2°55.751 359.7 3.9 355.5 -999
2001-08-13 07:45:12 51°13.707 2°55.749 353.5 4.2 351.1 -999
2001-08-13 07:45:18 51°13.714 2°55.746 348 4.7 345.6 -999
2001-08-13 07:45:22 51°13.72 2°55.743 344.5 5 342.4 5
2001-08-13 07:45:26 51°13.725 2°55.739 342 5.2 340.1 5.3
2001-08-13 07:45:32 51°13.734 2°55.733 339.8 5.5 337.3 5.1
2001-08-13 07:45:37 51°13.741 2°55.728 338.2 5.6 335.9 4.9
2001-08-13 07:45:42 51°13.749 2°55.722 336.7 5.8 333.6 5
2001-08-13 07:45:46 51°13.754 2°55.716 334.5 5.9 331.5 5.2
2001-08-13 07:45:52 51°13.763 2°55.708 332.5 6 329.8 5.1
2001-08-13 07:45:56 51°13.769 2°55.703 331.3 6 328.9 -999
2001-08-13 07:46:02 51°13.777 2°55.694 331.5 6.1 328.1 5
2001-08-13 07:46:08 51°13.786 2°55.685 331.8 6.1 328.3 -999
2001-08-13 07:46:12 51°13.792 2°55.68 332.3 6.2 328.4 -999
2001-08-13 07:46:16 51°13.798 2°55.674 332.7 6.3 328.9 5.3
2001-08-13 07:46:22 51°13.807 2°55.665 333.3 6.3 329.6 5.1
2001-08-13 07:46:28 51°13.816 2°55.657 334 6.4 330.3 -999
2001-08-13 07:46:32 51°13.823 2°55.652 335 6.4 331 5.3
2001-08-13 07:46:38 51°13.832 2°55.643 335.7 6.4 331.6 5.3
2001-08-13 07:46:42 51°13.839 2°55.638 336.2 6.5 332.2 5.2
2001-08-13 07:46:48 51°13.848 2°55.63 337 6.5 333.1 5.2
2001-08-13 07:46:52 51°13.855 2°55.625 337.8 6.6 334 5.1
2001-08-13 07:46:56 51°13.861 2°55.62 338.3 6.6 334.4 5.2
2001-08-13 07:47:02 51°13.872 2°55.613 338.5 6.7 334.7 5.1
2001-08-13 07:47:08 51°13.882 2°55.605 338.2 6.7 334.7 -999
2001-08-13 07:47:12 51°13.889 2°55.6 338 6.7 334.6 5.1
2001-08-13 07:47:18 51°13.899 2°55.592 338.2 6.8 334.6 5.2
2001-08-13 07:47:22 51°13.905 2°55.587 338.2 6.8 334.7 5.1
2001-08-13 07:47:28 51°13.916 2°55.58 338.5 6.9 335 -999
2001-08-13 07:47:32 51°13.923 2°55.575 338.7 6.9 335.3 5.2
2001-08-13 07:47:36 51°13.93 2°55.57 339 6.9 335.6 5.1
2001-08-13 07:47:42 51°13.94 2°55.562 339 7 335.8 5.1
2001-08-13 07:47:48 51°13.951 2°55.554 338.7 7 335.8 -999
2001-08-13 07:47:52 51°13.958 2°55.549 338.3 7 335.5 5.1
2001-08-13 07:47:57 51°13.967 2°55.543 338.2 7 335.3 -999
2001-08-13 07:48:02 51°13.976 2°55.536 338.2 7.1 335.1 -999
2001-08-13 07:48:06 51°13.983 2°55.531 338.7 7.1 335.3 5.1
2001-08-13 07:48:12 51°13.994 2°55.523 339.2 7.1 335.6 5.4
2001-08-13 07:48:18 51°14.004 2°55.516 339.8 7.1 336 5.2
2001-08-13 07:48:22 51°14.012 2°55.511 340.2 7.1 336.3 5.1
2001-08-13 07:48:28 51°14.023 2°55.503 340 7.1 336.2 5.8
2001-08-13 07:48:32 51°14.03 2°55.498 339.7 7.1 335.9 5.3
2001-08-13 07:48:36 51°14.037 2°55.493 340 7.1 336.1 5.6
2001-08-13 07:48:42 51°14.048 2°55.485 340.5 7.1 336.3 5.1
2001-08-13 07:48:48 51°14.059 2°55.478 340.3 7.1 336.5 5.2
2001-08-13 07:48:52 51°14.066 2°55.473 339.8 7.1 336.1 5.2
2001-08-13 07:48:56 51°14.073 2°55.468 339.7 7 336 5.2
2001-08-13 07:49:02 51°14.084 2°55.46 340.2 7 336.1 5
2001-08-13 07:49:06 51°14.091 2°55.455 340.3 7 336.4 5.1
2001-08-13 07:49:12 51°14.102 2°55.448 340.2 7 336.2 5.1
2001-08-13 07:49:17 51°14.11 2°55.442 339.8 7 336.4 5.2
2001-08-13 07:49:22 51°14.119 2°55.435 339.3 7 335.6 5
2001-08-13 07:49:28 51°14.13 2°55.427 338.3 7 335.1 5.3
2001-08-13 07:49:32 51°14.137 2°55.421 337.3 7 333.6 5.3
2001-08-13 07:49:36 51°14.144 2°55.415 335.7 7 332.7 5.1
2001-08-13 07:49:42 51°14.154 2°55.406 334.3 7 331.2 -999
2001-08-13 07:49:48 51°14.164 2°55.397 333 7 329.9 5.4
2001-08-13 07:49:52 51°14.17 2°55.39 331.5 7 328.6 5.2
2001-08-13 07:49:56 51°14.177 2°55.383 330.2 7 327.6 5.1
2001-08-13 07:50:02 51°14.186 2°55.373 328.8 7 326.4 5.5
2001-08-13 07:50:08 51°14.196 2°55.362 327.8 6.9 325.7 5.4
2001-08-13 07:50:12 51°14.202 2°55.355 326.7 6.9 324.7 5.5
2001-08-13 07:50:17 51°14.21 2°55.346 325.5 6.9 323.7 5.3
2001-08-13 07:50:22 51°14.217 2°55.336 324 6.9 322.1 5.2
2001-08-13 07:50:26 51°14.223 2°55.329 322.8 6.9 321.1 -999
2001-08-13 07:50:32 51°14.232 2°55.317 322 6.9 319.9 -999
2001-08-13 07:50:36 51°14.238 2°55.309 321.3 6.9 319.3 5.3
2001-08-13 07:50:42 51°14.246 2°55.296 320.7 6.9 318.4 -999
2001-08-13 07:50:48 51°14.254 2°55.284 319.5 6.9 317.7 5
2001-08-13 07:50:52 51°14.26 2°55.275 318.2 6.9 316.2 5.5
2001-08-13 07:50:57 51°14.266 2°55.265 316.7 6.8 315.1 -999
2001-08-13 07:51:02 51°14.273 2°55.253 315.2 6.8 313.5 5.2
2001-08-13 07:51:08 51°14.28 2°55.24 313.8 6.8 312.2 5.4
2001-08-13 07:51:12 51°14.285 2°55.231 313.2 6.8 311.5 5.2
2001-08-13 07:51:16 51°14.29 2°55.223 312.8 6.8 311 5.1
2001-08-13 07:51:22 51°14.298 2°55.21 312.5 6.7 310.6 4.9
2001-08-13 07:51:27 51°14.304 2°55.199 312.3 6.7 310.3 5.2
2001-08-13 07:51:32 51°14.31 2°55.187 312.2 6.7 310 5.5
2001-08-13 07:51:36 51°14.314 2°55.178 312 6.6 310.2 5.4
2001-08-13 07:51:42 51°14.322 2°55.165 312.2 6.6 310.4 5.4
2001-08-13 07:51:48 51°14.328 2°55.151 312.2 6.6 310.5 4.8
2001-08-13 07:51:52 51°14.333 2°55.143 312 6.6 310.4 4.6
2001-08-13 07:51:58 51°14.34 2°55.129 312 6.5 310.3 4.8
2001-08-13 07:52:02 51°14.345 2°55.12 311.5 6.5 310.4 -999
2001-08-13 07:52:08 51°14.352 2°55.107 311.3 6.6 310.4 11.5
2001-08-13 07:52:12 51°14.357 2°55.098 311.3 6.7 310.4 11
2001-08-13 07:52:16 51°14.362 2°55.089 311.5 6.7 310.8 11.8
2001-08-13 07:52:22 51°14.37 2°55.076 312 6.8 311.5 12
2001-08-13 07:52:26 51°14.375 2°55.067 312.3 6.9 311.9 11.5
2001-08-13 07:52:32 51°14.383 2°55.054 312.3 7 312.5 12
2001-08-13 07:52:36 51°14.388 2°55.045 313 7 313.2 12
2001-08-13 07:52:42 51°14.397 2°55.031 313.7 7 314.1 11.6
2001-08-13 07:52:47 51°14.404 2°55.02 314 7.1 314.8 11.5
2001-08-13 07:52:52 51°14.411 2°55.009 314.5 7.1 316.4 11.8
2001-08-13 07:52:56 51°14.417 2°55 315.3 7.2 317.5 11.3
2001-08-13 07:53:02 51°14.426 2°54.987 316.7 7.4 319.1 11.2
2001-08-13 07:53:07 51°14.434 2°54.976 317.2 7.5 320.1 10.7
2001-08-13 07:53:12 51°14.443 2°54.965 317.5 7.7 320.2 11.3
2001-08-13 07:53:16 51°14.45 2°54.955 317 7.8 319.9 11.2
2001-08-13 07:53:22 51°14.46 2°54.942 318 7.9 320.1 10.4
2001-08-13 07:53:26 51°14.467 2°54.933 318.5 7.9 320.5 11.1
2001-08-13 07:53:32 51°14.477 2°54.92 320 8 321.7 10.5
2001-08-13 07:53:36 51°14.484 2°54.911 321.8 8.1 322.9 10.7
2001-08-13 07:53:42 51°14.496 2°54.899 323.2 8.2 324.7 11.1
2001-08-13 07:53:47 51°14.505 2°54.889 324.8 8.2 325.9 10.6
2001-08-13 07:53:52 51°14.515 2°54.88 326.8 8.4 328.4 10.7
2001-08-13 07:54:14 51°14.562 2°54.843 1.2 8.5 334.9 11.2
2001-08-13 07:54:19 51°14.572 2°54.836 1.7 8.2 336.1 11.2
2001-08-13 07:54:23 51°14.58 2°54.83 1.7 7.8 336.9  
2001-08-13 07:54:27 51°14.587 2°54.825 1 7.5 337.1  
2001-08-13 07:54:31 51°14.595 2°54.82 1.2 7.2 337.2  
2001-08-13 07:54:34 51°14.6 2°54.817 0.5 7 337.3  
2001-08-13 07:55:08 51°14.65 2°54.783 355.8 5.3 336.2  
2001-08-13 07:55:14 51°14.658 2°54.778 353.8 5 336.5  
2001-08-13 07:55:18 51°14.662 2°54.774 353 4.8 336.7 1.1
2001-08-13 07:55:24 51°14.669 2°54.769 352.5 4.6 336.3 3.9
2001-08-13 07:55:28 51°14.673 2°54.766 351.8 4.3 336.3 5.8
2001-08-13 07:55:34 51°14.679 2°54.762 350.7 4.1 336.8 7.3
2001-08-13 07:55:38 51°14.683 2°54.759 350.3 3.8 337.2 8.1
2001-08-13 07:55:44 51°14.688 2°54.755 349.2 3.6 337 9.3
2001-08-13 07:55:48 51°14.691 2°54.753 348.2 3.4 336.8 -999
2001-08-13 07:55:54 51°14.696 2°54.75 347 3.3 336.9 10
2001-08-13 07:55:58 51°14.7 2°54.748 346.7 3.1 338.4 10.5
2001-08-13 07:56:04 51°14.705 2°54.746 346 2.9 341.9 10.5
2001-08-13 07:56:08 51°14.707 2°54.745 346.8 2.7 344.4 10.6
2001-08-13 07:56:14 51°14.712 2°54.743 347.7 2.6 345.5 10.6
2001-08-13 07:56:18 51°14.714 2°54.742 347.7 2.5 345.3 10.8
2001-08-13 07:56:24 51°14.718 2°54.741 347.2 2.5 345.5 11
2001-08-13 07:56:28 51°14.721 2°54.74 347.5 2.5 346.5 11
2001-08-13 07:56:34 51°14.725 2°54.738 347.2 2.4 346.4 11
2001-08-13 07:56:38 51°14.727 2°54.737 347 2.5 344.7 10.8
2001-08-13 07:56:44 51°14.732 2°54.735 346.5 2.7 341.5 11
2001-08-13 07:56:48 51°14.735 2°54.732 346.2 2.9 338.2 11.1
2001-08-13 07:56:54 51°14.74 2°54.728 345.3 3.2 335.8 11.1
2001-08-13 07:56:58 51°14.744 2°54.725 344.3 3.7 331.6 10.9
2001-08-13 07:57:04 51°14.75 2°54.719 343.5 3.9 329.9 11.1
2001-08-13 07:57:09 51°14.755 2°54.713 343.2 4.4 327.6 11
2001-08-13 07:57:14 51°14.761 2°54.706 343.3 4.7 325.9 11
2001-08-13 07:57:18 51°14.766 2°54.701 343.8 5.2 325.2 10.8
2001-08-13 07:57:24 51°14.774 2°54.693 344.8 5.5 326 11
2001-08-13 07:57:28 51°14.779 2°54.687 346.5 5.8 327.2 10.7
2001-08-13 07:57:34 51°14.788 2°54.679 348.3 6.1 327.8 10.8
2001-08-13 07:57:39 51°14.796 2°54.671 349.7 6.3 328.6 9.5
2001-08-13 07:57:44 51°14.804 2°54.664 351 6.7 329.3 10.7
2001-08-13 07:57:48 51°14.811 2°54.658 351.3 6.8 330.2 10.2
2001-08-13 07:57:54 51°14.821 2°54.65 352 6.8 331.7 10.7
2001-08-13 07:57:58 51°14.827 2°54.644 353 6.9 332 10.3
2001-08-13 07:58:04 51°14.838 2°54.634 352.7 7 331 10.7
2001-08-13 07:58:08 51°14.845 2°54.627 351.8 7.3 329.9 10.6
2001-08-13 07:58:14 51°14.856 2°54.617 351.5 7.6 329.5 10.8
2001-08-13 07:58:18 51°14.863 2°54.61 351.5 7.7 329.2 10.8
2001-08-13 07:58:24 51°14.875 2°54.599 351.3 8 328.9 10.9
2001-08-13 07:58:28 51°14.883 2°54.591 351.7 8.2 328.8 11
2001-08-13 07:58:34 51°14.895 2°54.579 352.7 8.5 329.2 10.6
2001-08-13 07:58:38 51°14.904 2°54.572 353.5 8.8 329.7 9.4
2001-08-13 07:58:44 51°14.917 2°54.561 354.2 8.9 330.4 10.6
2001-08-13 07:58:48 51°14.926 2°54.553 355.3 9.1 330.9 10.1
2001-08-13 07:58:54 51°14.94 2°54.541 355.3 9.3 330.9 10.3
2001-08-13 07:58:58 51°14.949 2°54.532 354.8 9.5 330.6 10.3
2001-08-13 07:59:04 51°14.964 2°54.52 355.2 9.8 331.1 10.8
2001-08-13 07:59:09 51°14.976 2°54.509 355.7 9.9 330.8 9.7
2001-08-13 07:59:14 51°14.988 2°54.497 354.8 10.2 329.8 8.6
2001-08-13 07:59:20 51°15.003 2°54.483 354.7 10.3 329.4 8.1
2001-08-13 07:59:24 51°15.014 2°54.473 354.7 10.7 329 9.8
2001-08-13 07:59:28 51°15.024 2°54.462 354 11 328.3 10
2001-08-13 07:59:34 51°15.04 2°54.446 354 11.2 327.7 9.5
2001-08-13 07:59:40 51°15.056 2°54.429 354.3 11.5 327.4 -999
2001-08-13 07:59:44 51°15.068 2°54.418 354.2 11.8 327.9 9.3
2001-08-13 07:59:48 51°15.079 2°54.407 355.8 11.8 328.6 -999
2001-08-13 07:59:54 51°15.097 2°54.392 358.3 11.9 330.9 9.5
2001-08-13 07:59:59 51°15.111 2°54.38 359.3 12 331.8 -999
2001-08-13 08:00:04 51°15.126 2°54.367 359 12.1 332.2 -999
2001-08-13 08:00:08 51°15.138 2°54.357 358.7 12.1 331.9 9.9
2001-08-13 08:00:14 51°15.155 2°54.34 357.8 12.2 330.4 5.3
2001-08-13 08:00:18 51°15.167 2°54.329 355.3 12.2 329.1 10.1
2001-08-13 08:00:24 51°15.183 2°54.311 352.7 12.2 326.2 10.1
2001-08-13 08:00:28 51°15.194 2°54.298 350.5 12.2 324.5 10
2001-08-13 08:00:34 51°15.21 2°54.277 348 12.1 321.9 10.1
2001-08-13 08:00:38 51°15.22 2°54.263 347.5 12.1 321.1 10.1
2001-08-13 08:00:44 51°15.236 2°54.245 349 11.9 322.4 10.2
2001-08-13 08:00:48 51°15.248 2°54.232 351.7 12 323.9 10.1
2001-08-13 08:00:54 51°15.265 2°54.215 354.2 12.1 326.5 10.2
2001-08-13 08:00:59 51°15.279 2°54.201 356.3 12.2 327.7 -999
2001-08-13 08:01:04 51°15.294 2°54.188 358 12.3 330.5 10.7
2001-08-13 08:01:08 51°15.306 2°54.177 359.7 12.4 331.2 -999
2001-08-13 08:01:14 51°15.325 2°54.162 359.7 12.5 332.1 -999
2001-08-13 08:01:20 51°15.343 2°54.147 359.7 12.6 332.3 -999
2001-08-13 08:01:24 51°15.355 2°54.136 358.2 12.5 330.8 10.1
2001-08-13 08:01:28 51°15.367 2°54.124 356.2 12.5 329.2 10.8
2001-08-13 08:01:34 51°15.384 2°54.107 354.8 12.4 327.9 10.5
2001-08-13 08:01:38 51°15.396 2°54.095 353.5 12.3 327.3 -999
2001-08-13 08:01:44 51°15.413 2°54.076 353 12.3 326.1 10.8
2001-08-13 08:01:48 51°15.424 2°54.064 351.7 12.3 324.8 -999
2001-08-13 08:01:54 51°15.44 2°54.044 350.8 12.3 324 10.9
2001-08-13 08:01:58 51°15.451 2°54.031 350.8 12.2 323.2 11.5
2001-08-13 08:02:04 51°15.467 2°54.011 351 12.2 323.3 11.6
2001-08-13 08:02:08 51°15.478 2°53.998 351.3 12.2 323.4 11.5
2001-08-13 08:02:14 51°15.495 2°53.979 352.2 12.3 324.7 11.6
2001-08-13 08:02:18 51°15.507 2°53.968 353.5 12.3 326 11.3
2001-08-13 08:02:24 51°15.525 2°53.951 355.3 12.4 328 11.1
2001-08-13 08:02:28 51°15.537 2°53.94 356.3 12.5 329.2 11.8
2001-08-13 08:02:34 51°15.555 2°53.923 357.2 12.7 329.6 11.7
2001-08-13 08:02:39 51°15.57 2°53.908 357 12.8 329.2 11.3
2001-08-13 08:02:44 51°15.586 2°53.892 356.5 13 328.6 11.9
2001-08-13 08:02:48 51°15.598 2°53.88 355.8 13 328.2 11
2001-08-13 08:02:54 51°15.616 2°53.862 355 12.9 327.7 11.9
2001-08-13 08:02:58 51°15.628 2°53.85 355.5 12.9 327.6 11.7
2001-08-13 08:03:04 51°15.646 2°53.83 354.2 12.9 326.2 11.9
2001-08-13 08:03:08 51°15.657 2°53.817 352.8 12.9 325.4 12
2001-08-13 08:03:14 51°15.675 2°53.799 353.3 12.8 325.5 12.3
2001-08-13 08:03:18 51°15.687 2°53.787 355 12.8 326.8 12.3
2001-08-13 08:03:24 51°15.706 2°53.769 357.5 12.9 329.4 12.1
2001-08-13 08:03:28 51°15.719 2°53.759 359.2 13 331.2 12.4
2001-08-13 08:03:34 51°15.738 2°53.743 0.3 13.1 332.1 11.6
2001-08-13 08:03:39 51°15.754 2°53.729   13.1 332 12.4
2001-08-13 08:03:44 51°15.77 2°53.715 359.5 13.1 331.4 12.5
2001-08-13 08:03:48 51°15.783 2°53.703 359 13 330.6 11.5
2001-08-13 08:03:54 51°15.802 2°53.687 358.3 13 330.7 12.7
2001-08-13 08:03:58 51°15.814 2°53.676 359.2 13 331 12.9
2001-08-13 08:04:04 51°15.834 2°53.66 0.5 13 332.2 12.8
2001-08-13 08:04:08 51°15.847 2°53.65 1.7 12.9 333.8 12.8
2001-08-13 08:04:14 51°15.866 2°53.637 3.2 12.7 335.5 12.8
2001-08-13 08:04:18 51°15.878 2°53.629 4.5 12.4 337.2 12.5
2001-08-13 08:04:24 51°15.897 2°53.617 5.7 12.1 337.9 12.6
2001-08-13 08:04:28 51°15.908 2°53.608 4.2 11.8 337.2 -999
2001-08-13 08:04:34 51°15.926 2°53.595 1.7 11.6 335.5 12.5
2001-08-13 08:04:39 51°15.94 2°53.584 0.5 11.4 334.4 12.9
2001-08-13 08:04:44 51°15.953 2°53.573 358.5 11.2 332.8 12.8
2001-08-13 08:04:48 51°15.964 2°53.564 358.3 11.1 332.6 12.8
2001-08-13 08:04:54 51°15.98 2°53.55 358.2 11 332.3 13.2
2001-08-13 08:04:58 51°15.991 2°53.541 357.2 10.8 331.4 13.3
2001-08-13 08:05:04 51°16.006 2°53.526 355.5 10.7 329.8 13.2
2001-08-13 08:05:08 51°16.016 2°53.516 353.8 10.6 328.2 13.4
2001-08-13 08:05:14 51°16.03 2°53.501 352.7 10.6 326.7 -999
2001-08-13 08:05:19 51°16.043 2°53.487 352.8 10.7 326.4 13.6
2001-08-13 08:05:24 51°16.056 2°53.474 354 10.9 327.3 12.7
2001-08-13 08:05:28 51°16.067 2°53.465 356 11.2 329.2 13.4
2001-08-13 08:05:34 51°16.084 2°53.451 359.7 11.4 332.4 13
2001-08-13 08:05:38 51°16.096 2°53.442 1.3 11.6 334 13.1
2001-08-13 08:05:44 51°16.114 2°53.427 1.8 12 333.8 13.5
2001-08-13 08:05:48 51°16.126 2°53.417 359.7 12.1 332.8 13.2
2001-08-13 08:05:54 51°16.143 2°53.4 356.8 12.2 329.5 13.3
2001-08-13 08:05:59 51°16.158 2°53.385 355 12.3 327.7 13.6
2001-08-13 08:06:04 51°16.172 2°53.369 353.7 12.5 326.1 13.4
2001-08-13 08:06:08 51°16.184 2°53.356 353.2 12.7 325.8 13.6
2001-08-13 08:06:14 51°16.202 2°53.337 353.7 12.9 326.2 13.6
2001-08-13 08:06:19 51°16.217 2°53.321 353.5 13 326.5 13.4
2001-08-13 08:06:24 51°16.232 2°53.304 354 13 325.9 13.3
2001-08-13 08:06:28 51°16.244 2°53.291 352.7 13.1 325.5 13.6
2001-08-13 08:06:34 51°16.262 2°53.271 353 13.2 325.3 13.3
2001-08-13 08:06:38 51°16.274 2°53.259 353.3 13.1 325.7 13.2
2001-08-13 08:06:44 51°16.292 2°53.241 355.2 13.1 327.7 13.3
2001-08-13 08:06:48 51°16.305 2°53.228 356.3 13.1 328.4 13.4
2001-08-13 08:06:54 51°16.323 2°53.21 355.5 13.1 328.4 13.6
2001-08-13 08:06:58 51°16.335 2°53.197 355.2 13.1 328 13.4
2001-08-13 08:07:04 51°16.355 2°53.18 356.5 13.1 328.7 13.6
2001-08-13 08:07:09 51°16.37 2°53.165 356.8 13.1 329 13.7
2001-08-13 08:07:14 51°16.386 2°53.15 356.7 13.1 329 13.6
2001-08-13 08:07:18 51°16.398 2°53.138 356.8 13.1 329 13.4
2001-08-13 08:07:24 51°16.417 2°53.12 356.5 13.2 328.7 12.7
2001-08-13 08:07:29 51°16.433 2°53.105 356.2 13.2 328.9 13.5
2001-08-13 08:07:34 51°16.448 2°53.09 355.7 13.1 328.6 12.9
2001-08-13 08:07:38 51°16.461 2°53.078 355.8 13.2 328.7 13.1
2001-08-13 08:07:44 51°16.479 2°53.06 355.3 13.2 328.8 12.5
2001-08-13 08:07:48 51°16.492 2°53.047 355.7 13.2 328.2 12.8
2001-08-13 08:07:54 51°16.511 2°53.028 355.5 13.2 327.8 13.1
2001-08-13 08:07:59 51°16.526 2°53.012 355.3 13.2 327.2 12.6
2001-08-13 08:08:04 51°16.541 2°52.997 354.7 13.1 327.7 12.7
2001-08-13 08:08:08 51°16.554 2°52.986 356.2 13.1 328.8 13.2
2001-08-13 08:08:14 51°16.573 2°52.968 358 13.1 329.9 13.1
2001-08-13 08:08:18 51°16.586 2°52.957 357.7 13.2 330.9 13
2001-08-13 08:08:24 51°16.604 2°52.94 357.3 13.1 330.4 12.5
2001-08-13 08:08:28 51°16.617 2°52.929 356.8 13.1 330.9 12.2
2001-08-13 08:08:34 51°16.637 2°52.912 358.8 13.2 330.7 -999
2001-08-13 08:08:39 51°16.653 2°52.897 357.5 13.2 329.9 12.6
2001-08-13 08:08:44 51°16.668 2°52.881 356.2 13.2 328.7 11.8
2001-08-13 08:08:48 51°16.68 2°52.869 355 13.1 327.7 12.3
2001-08-13 08:08:54 51°16.699 2°52.85 354.5 13.1 327.1 12.4
2001-08-13 08:09:00 51°16.717 2°52.831 355.2 13.1 327.1 12.3
2001-08-13 08:09:04 51°16.73 2°52.819 356.8 13.1 328.7 11.9
2001-08-13 08:09:08 51°16.743 2°52.808 359 13.2 330.4 11.8
2001-08-13 08:09:14 51°16.762 2°52.792 0.8 13.3 332.5 11.3
2001-08-13 08:09:19 51°16.779 2°52.779 1.7 13.3 333.1 10.9
2001-08-13 08:09:24 51°16.796 2°52.766 2 13.4 333.6 10.6
2001-08-13 08:09:28 51°16.809 2°52.756 1.7 13.4 334.1 10.8
2001-08-13 08:09:34 51°16.829 2°52.741 2.3 13.4 334.3 10.2
2001-08-13 08:09:38 51°16.843 2°52.731 2.8 13.4 334.6 10.8
2001-08-13 08:09:44 51°16.863 2°52.716 2.3 13.4 334 10.5
2001-08-13 08:09:48 51°16.876 2°52.705 2.5 13.4 334 10.7
2001-08-13 08:09:54 51°16.896 2°52.691 3.8 13.3 335.4 10.5
2001-08-13 08:10:00 51°16.917 2°52.677 6.7 13.4 337.9 10.7
2001-08-13 08:10:04 51°16.931 2°52.668 7.5 13.4 338.6 11
2001-08-13 08:10:10 51°16.952 2°52.656 7.8 13.5 339.3 -999
2001-08-13 08:10:14 51°16.966 2°52.647 7.3 13.5 338.9 10.8
2001-08-13 08:10:18 51°16.98 2°52.637 5.2 13.5 337.3 11.5
2001-08-13 08:10:24 51°17 2°52.622 3.2 13.4 335.2 -999
2001-08-13 08:10:28 51°17.013 2°52.611 1 13.4 333.8 11.5
2001-08-13 08:10:34 51°17.033 2°52.594 359.5 13.3 331.5 11
2001-08-13 08:10:38 51°17.045 2°52.582 358.2 13.3 330 10.5
2001-08-13 08:10:44 51°17.064 2°52.564 357.2 13.2 330.2 -999
2001-08-13 08:10:48 51°17.077 2°52.554 359.5 13.2 331.4 10.5
2001-08-13 08:10:54 51°17.097 2°52.537 0.3 13.3 332.3 10.3
2001-08-13 08:10:59 51°17.113 2°52.523 359.7 13.3 332 10.2
2001-08-13 08:11:04 51°17.13 2°52.508 358.8 13.3 331.2 10.8
2001-08-13 08:11:08 51°17.142 2°52.497 359 13.3 330.7 11
2001-08-13 08:11:14 51°17.162 2°52.479 359.2 13.3 330.7 11.1
2001-08-13 08:11:18 51°17.175 2°52.468 359.5 13.4 331 11.4
2001-08-13 08:11:24 51°17.195 2°52.451   13.4 331.8 11.3
2001-08-13 08:11:28 51°17.208 2°52.44   13.5 332 11.3
2001-08-13 08:11:34 51°17.228 2°52.422 359.7 13.4 331.3 11.4
2001-08-13 08:11:38 51°17.24 2°52.411 357.8 13.4 330.7 11
2001-08-13 08:11:44 51°17.259 2°52.392 357.5 13.3 328.9 11.5
2001-08-13 08:11:48 51°17.271 2°52.38 356.3 13.4 328.2 11.6
2001-08-13 08:11:54 51°17.29 2°52.361 357.3 13.3 328.3 11
2001-08-13 08:11:58 51°17.303 2°52.349 357.3 13.3 328.5 11.6
2001-08-13 08:12:04 51°17.322 2°52.332 357.7 13.4 329.7 11.7
2001-08-13 08:12:08 51°17.336 2°52.32 359.3 13.4 331.2 11.6
2001-08-13 08:12:14 51°17.355 2°52.304 0.2 13.4 332 11.4
2001-08-13 08:12:20 51°17.375 2°52.287 0.7 13.4 332.5 11.3
2001-08-13 08:12:24 51°17.389 2°52.277 0.7 13.5 332.7 11.5
2001-08-13 08:12:28 51°17.402 2°52.266 0.2 13.5 332.6 11.3
2001-08-13 08:12:34 51°17.421 2°52.248 358.8 13.5 330.9 11.6
2001-08-13 08:12:38 51°17.434 2°52.235 357.7 13.5 329.3 11.4
2001-08-13 08:12:44 51°17.453 2°52.215 356.2 13.5 327.9 12
2001-08-13 08:12:48 51°17.466 2°52.202 355.5 13.4 327.2 11.5
2001-08-13 08:12:54 51°17.484 2°52.183 355.5 13.5 327 11.3
2001-08-13 08:12:58 51°17.497 2°52.17 355.8 13.5 327.1 11.7
2001-08-13 08:13:04 51°17.516 2°52.152 356.3 13.4 328.7 11.7
2001-08-13 08:13:09 51°17.532 2°52.137 357 13.4 329.6 11.8
2001-08-13 08:13:14 51°17.548 2°52.121 357.2 13.4 328.8 -999
2001-08-13 08:13:19 51°17.563 2°52.104 355.3 13.4 327.5 11
2001-08-13 08:13:24 51°17.579 2°52.088 353.2 13.4 325.9 11.2
2001-08-13 08:13:28 51°17.591 2°52.074 352.3 13.3 324.3 11.2
2001-08-13 08:13:34 51°17.608 2°52.052 349.7 13.3 322 11.5
2001-08-13 08:13:38 51°17.619 2°52.037 347.7 13.2 321 10.8
2001-08-13 08:13:44 51°17.635 2°52.013 347 13.2 319 11.1
2001-08-13 08:13:50 51°17.652 2°51.989 345.2 13.2 318.1 11
2001-08-13 08:13:54 51°17.663 2°51.973 344.2 13.2 317 -999
2001-08-13 08:13:58 51°17.673 2°51.957 343.7 13.1 316.7 -999
2001-08-13 08:14:04 51°17.689 2°51.933 343.7 13.2 316.1 11.5
2001-08-13 08:14:08 51°17.7 2°51.916 343.7 13.2 315.9 10.6
2001-08-13 08:14:14 51°17.715 2°51.892 343.3 13.3 315.7 11.6
2001-08-13 08:14:18 51°17.726 2°51.875 342.7 13.3 315.3 -999
2001-08-13 08:14:24 51°17.741 2°51.85 341.7 13.2 314.7 11.7
2001-08-13 08:14:28 51°17.751 2°51.833 341 13.1 313.9 11.6
2001-08-13 08:14:34 51°17.766 2°51.807 340 13.2 312.7 11.2
2001-08-13 08:14:40 51°17.78 2°51.782 339.7 13.1 312.4 -999
2001-08-13 08:14:44 51°17.79 2°51.765 340.2 13.1 313 11.2
2001-08-13 08:14:49 51°17.802 2°51.743 339.5 13.1 312.6 11.2
2001-08-13 08:14:54 51°17.814 2°51.723 337.7 12.9 312.5 -999
2001-08-13 08:15:00 51°17.829 2°51.699 339.7 12.7 314 -999
2001-08-13 08:15:05 51°17.841 2°51.679 339.5 12.6 314.1 -999
2001-08-13 08:15:10 51°17.853 2°51.659 339.8 12.5 314 10.2
2001-08-13 08:15:14 51°17.863 2°51.643 340.2 12.6 313.2 -999
2001-08-13 08:15:18 51°17.872 2°51.626 340 12.6 312.5 11.2
2001-08-13 08:15:24 51°17.886 2°51.6 338.2 12.8 311.1 11.5
2001-08-13 08:15:28 51°17.895 2°51.582 337.5 12.9 310.5 11
2001-08-13 08:15:34 51°17.909 2°51.556 336.8 12.9 310.7 11.2
2001-08-13 08:15:38 51°17.919 2°51.54 338.5 12.8 312 -999
2001-08-13 08:15:44 51°17.934 2°51.517 341 12.7 313.8 -999
2001-08-13 08:15:50 51°17.949 2°51.493 342.7 12.8 315 11.7
2001-08-13 08:15:54 51°17.96 2°51.476 342.3 13 315.5 12.2
2001-08-13 08:15:58 51°17.97 2°51.46 341.8 13.1 315.2 12.1
2001-08-13 08:16:04 51°17.985 2°51.435 342.3 13.1 314.5 -999
2001-08-13 08:16:08 51°17.995 2°51.419 342.2 13.2 314.6 12.4
2001-08-13 08:16:14 51°18.011 2°51.394 342 13.2 314.4 11.7
2001-08-13 08:16:18 51°18.021 2°51.377 341.2 13.1 314.2 12.6
2001-08-13 08:16:24 51°18.035 2°51.352 340.8 13 313.7 12.7
2001-08-13 08:16:28 51°18.045 2°51.335 339.7 12.9 312.6 -999
2001-08-13 08:16:34 51°18.059 2°51.309 338.7 13 311.7 11.8
2001-08-13 08:16:38 51°18.069 2°51.291 337.8 13 311.4 12.8
2001-08-13 08:16:44 51°18.083 2°51.266 338.3 13 311.6 12.5
2001-08-13 08:16:48 51°18.093 2°51.249 338.2 12.9 312.4 13.1
2001-08-13 08:16:54 51°18.107 2°51.223 338.7 12.9 311.4 12.9
2001-08-13 08:16:58 51°18.116 2°51.205 336.3 12.9 309.9 13.3
2001-08-13 08:17:04 51°18.129 2°51.178 335 12.8 307.6 13.5
2001-08-13 08:17:09 51°18.138 2°51.155 332.5 12.7 306 13.3
2001-08-13 08:17:14 51°18.148 2°51.132 330.5 12.6 303.7 13.5
2001-08-13 08:17:18 51°18.156 2°51.113 329.8 12.6 303 13.4
2001-08-13 08:17:24 51°18.167 2°51.085 329.2 12.6 302.8 13.9
2001-08-13 08:17:28 51°18.175 2°51.066 329.7 12.6 302.6 14.1
2001-08-13 08:17:34 51°18.186 2°51.037 329.8 12.7 302.7 13.3
2001-08-13 08:17:38 51°18.194 2°51.018 329.5 12.8 303.1 14
2001-08-13 08:17:44 51°18.206 2°50.99 330 12.8 303.2 14
2001-08-13 08:17:48 51°18.214 2°50.971 329.5 12.8 303 14.1
2001-08-13 08:17:54 51°18.226 2°50.941 329.5 12.9 302.4 14.2
2001-08-13 08:17:58 51°18.233 2°50.922 329 12.9 302 13.6
2001-08-13 08:18:04 51°18.245 2°50.893 329.8 12.9 302.4 14
2001-08-13 08:18:08 51°18.253 2°50.874 330.3 12.9 303.3 13.8
2001-08-13 08:18:14 51°18.266 2°50.846 331.2 12.8 305 14.4
2001-08-13 08:18:18 51°18.273 2°50.828 333.2 12.8 305.7 -999
2001-08-13 08:18:24 51°18.286 2°50.802 334.3 12.7 306.5 13.4
2001-08-13 08:18:28 51°18.294 2°50.784 332 12.6 306.7 14.4
2001-08-13 08:18:34 51°18.306 2°50.757 331.2 12.6 304.1 14.5
2001-08-13 08:18:38 51°18.312 2°50.737 327.3 12.5 301.4 14.4
2001-08-13 08:18:44 51°18.322 2°50.708 324.5 12.5 298 15
2001-08-13 08:18:48 51°18.328 2°50.687 322.7 12.5 296.3 14.9
2001-08-13 08:18:54 51°18.337 2°50.658 323 12.5 296.1 15.1
2001-08-13 08:18:58 51°18.343 2°50.638 323.5 12.5 296.9 -999
2001-08-13 08:19:04 51°18.354 2°50.61 325.3 12.4 299.3 15.6
2001-08-13 08:19:09 51°18.363 2°50.587 328.2 12.3 301.2 15.5
2001-08-13 08:19:14 51°18.373 2°50.564 329.7 12.4 302.8 14.4
2001-08-13 08:19:18 51°18.381 2°50.546 331 12.5 304.2 15.5
2001-08-13 08:19:24 51°18.394 2°50.52 334.5 12.6 307.4 15.2
2001-08-13 08:19:28 51°18.403 2°50.502 336.5 12.8 308.2 14.8
2001-08-13 08:19:34 51°18.417 2°50.475 337.2 12.9 309.4 15.2
2001-08-13 08:19:39 51°18.429 2°50.454 338.3 12.9 310.9 15.4
2001-08-13 08:19:44 51°18.442 2°50.434 341.3 13 313.4 15.2
2001-08-13 08:19:48 51°18.452 2°50.417 341.5 13 313.9 15.3
2001-08-13 08:19:54 51°18.466 2°50.391 340.3 13 312.3 15.6
2001-08-13 08:19:59 51°18.477 2°50.368 337.7 13 310.4 15.2
2001-08-13 08:20:04 51°18.488 2°50.344 333.3 13 306.1 15.5
2001-08-13 08:20:08 51°18.495 2°50.325 328.7 12.9 303 -999
2001-08-13 08:20:14 51°18.504 2°50.295 324.7 12.6 298.2 15.5
2001-08-13 08:20:18 51°18.51 2°50.275 320.3 12.4 295.4 15.3
2001-08-13 08:20:24 51°18.516 2°50.244 317.5 12.2 291 15.2
2001-08-13 08:20:28 51°18.52 2°50.224 315.5 12.2 289.5 15.4
2001-08-13 08:20:34 51°18.528 2°50.194 317 12.2 289.3 15.2
2001-08-13 08:20:40 51°18.534 2°50.162 316 12.3 289.3 15.2
2001-08-13 08:20:44 51°18.538 2°50.141 315.2 12.4 288.1 15.1
2001-08-13 08:20:48 51°18.542 2°50.12 313.5 12.5 287 15.1
2001-08-13 08:20:54 51°18.548 2°50.088 313.3 12.5 286.5 15
2001-08-13 08:20:58 51°18.552 2°50.067 313.7 12.5 287.2 15
2001-08-13 08:21:04 51°18.559 2°50.035 315.3 12.5 287.9 14.9
2001-08-13 08:21:08 51°18.563 2°50.014 314.7 12.6 287.9 14.5
2001-08-13 08:21:14 51°18.569 2°49.982 314 12.5 287.2 14.3
2001-08-13 08:21:18 51°18.573 2°49.961 313.5 12.5 286.8 14.4
2001-08-13 08:21:24 51°18.579 2°49.929 313.5 12.5 286.8 13.9
2001-08-13 08:21:28 51°18.583 2°49.908 314.8 12.6 287.6 14
2001-08-13 08:21:34 51°18.59 2°49.876 316.5 12.6 288.6 14
2001-08-13 08:21:38 51°18.595 2°49.855 316.5 12.6 289.5 13.7
2001-08-13 08:21:44 51°18.602 2°49.824 315.7 12.3 289.5 13.9
2001-08-13 08:21:48 51°18.606 2°49.803 315.2 12.3 289 13.9
2001-08-13 08:21:54 51°18.612 2°49.772 314.3 12.4 287.3 13.4
2001-08-13 08:21:58 51°18.616 2°49.751 312.7 12.4 286.4 13.4
2001-08-13 08:22:04 51°18.621 2°49.719 313.3 12.4 285.8 12
2001-08-13 08:22:09 51°18.626 2°49.693 312.8 12.4 286.1 13.3
2001-08-13 08:22:14 51°18.631 2°49.667 314.2 12.3 287.6 12.8
2001-08-13 08:22:18 51°18.636 2°49.647 316 12.2 288.9 12.3
2001-08-13 08:22:24 51°18.643 2°49.617 317.3 12.2 290.8 12
2001-08-13 08:22:28 51°18.648 2°49.596 317.7 12.2 290.4 11.4
2001-08-13 08:22:34 51°18.654 2°49.565 314.5 12.3 287.8 11.9
2001-08-13 08:22:38 51°18.657 2°49.544 312 12.3 285.5 12.3
2001-08-13 08:22:44 51°18.661 2°49.512 310.3 12.3 283.6 12.2
2001-08-13 08:22:49 51°18.665 2°49.485 309.8 12.4 283.3 11.9
2001-08-13 08:22:54 51°18.671 2°49.46 312 12.4 285.7 11.9
2001-08-13 08:22:58 51°18.675 2°49.439 315.3 12.5 288.1 11.8
2001-08-13 08:23:04 51°18.682 2°49.407 316.7 12.5 289.6 11.6
2001-08-13 08:23:08 51°18.687 2°49.386 316.7 12.6 289.9 11.3
2001-08-13 08:23:14 51°18.694 2°49.355 316.5 12.6 289.6 11.5
2001-08-13 08:23:18 51°18.699 2°49.333 316.7 12.6 289.3 11.6
2001-08-13 08:23:24 51°18.706 2°49.302 316.3 12.6 289 11.9
2001-08-13 08:23:30 51°18.712 2°49.27 315.3 12.6 288.3 -999
2001-08-13 08:23:34 51°18.716 2°49.248 314.2 12.6 287.4 12.1
2001-08-13 08:23:38 51°18.72 2°49.227 313.3 12.6 286.6 12.3
2001-08-13 08:23:44 51°18.726 2°49.195 313.7 12.6 286.8 -999
2001-08-13 08:23:48 51°18.731 2°49.174 315.5 12.6 287.7 12.2
2001-08-13 08:23:54 51°18.738 2°49.143 317.5 12.6 290.2 12.3
2001-08-13 08:23:59 51°18.745 2°49.117 319.2 12.6 291.5 11.8
2001-08-13 08:24:04 51°18.752 2°49.09 319.3 12.7 292.2 -999
2001-08-13 08:24:10 51°18.76 2°49.059 317.8 12.7 291.3 5.2
2001-08-13 08:24:14 51°18.764 2°49.037 317.2 12.7 290.2 12.1
2001-08-13 08:24:18 51°18.769 2°49.016 316.7 12.7 289.7 -999
2001-08-13 08:24:24 51°18.777 2°48.984 317.3 12.7 290.2 -999
2001-08-13 08:24:30 51°18.784 2°48.953 318.5 12.6 291.2 11.6
2001-08-13 08:24:34 51°18.789 2°48.933 318.5 12.5 291.7 -999
2001-08-13 08:24:40 51°18.798 2°48.902 319 12.5 292.3 12
2001-08-13 08:24:44 51°18.803 2°48.882 320.5 12.6 293.1 12.4